createdAt,value
2023-01-07T01:15:01.503Z,1.0
2023-01-07T01:30:01.654Z,1.0
2023-01-07T01:50:02.026Z,0.9
2023-01-07T01:52:00.789Z,0.8
2023-01-07T01:53:00.535Z,0.7
2023-01-07T01:55:00.754Z,0.6
2023-01-07T01:56:00.851Z,0.5
2023-01-07T01:58:00.633Z,0.4
2023-01-07T01:59:00.570Z,0.3
2023-01-07T02:01:00.683Z,0.2
2023-01-07T02:02:00.625Z,0.1
2023-01-07T02:38:01.685Z,0.1
2023-01-07T02:40:00.549Z,0.2
2023-01-07T02:41:00.580Z,0.3
2023-01-07T02:43:01.334Z,0.4
2023-01-07T02:44:00.555Z,0.5
2023-01-07T02:45:01.197Z,0.5
2023-01-07T02:48:00.794Z,0.6
2023-01-07T02:49:00.547Z,0.7
2023-01-07T02:51:00.587Z,0.8
2023-01-07T02:52:00.559Z,0.9
2023-01-07T03:02:00.646Z,1.0
2023-01-07T03:15:01.520Z,1.0
2023-01-07T03:16:00.711Z,0.9
2023-01-07T03:18:00.557Z,0.8
2023-01-07T03:19:00.560Z,0.7
2023-01-07T03:21:00.808Z,0.6
2023-01-07T03:22:00.576Z,0.5
2023-01-07T03:24:00.682Z,0.4
2023-01-07T03:27:01.038Z,0.2
2023-01-07T03:28:00.575Z,0.1
2023-01-07T04:43:00.795Z,0.1
2023-01-07T04:58:00.929Z,0.1
2023-01-07T06:31:00.873Z,0.1
2023-01-07T06:33:00.711Z,0.2
2023-01-07T06:34:00.629Z,0.3
2023-01-07T06:36:02.664Z,0.4
2023-01-07T06:37:00.639Z,0.5
2023-01-07T06:39:00.692Z,0.6
2023-01-07T06:40:01.894Z,0.7
2023-01-07T06:42:00.886Z,0.8
2023-01-07T06:43:00.628Z,0.9
2023-01-07T06:45:01.326Z,1.0
2023-01-07T06:51:00.966Z,1.1
2023-01-07T06:53:01.205Z,1.3
2023-01-07T06:54:00.630Z,1.4
2023-01-07T06:56:00.835Z,1.7
2023-01-07T06:57:00.634Z,1.9
2023-01-07T06:58:00.626Z,2.2
2023-01-07T06:59:00.627Z,2.5
2023-01-07T07:00:01.501Z,2.7
2023-01-07T07:01:01.160Z,3.2
2023-01-07T07:02:00.720Z,3.7
2023-01-07T07:03:00.695Z,4.3
2023-01-07T07:04:00.643Z,5.0
2023-01-07T07:06:00.852Z,6.6
2023-01-07T07:07:00.759Z,7.5
2023-01-07T07:08:00.659Z,8.9
2023-01-07T07:09:00.642Z,10.2
2023-01-07T07:10:00.732Z,11.5
2023-01-07T07:11:02.281Z,13.3
2023-01-07T07:12:00.651Z,15.1
2023-01-07T07:13:00.637Z,17.5
2023-01-07T07:14:00.638Z,19.8
2023-01-07T07:16:00.894Z,25.5
2023-01-07T07:17:00.637Z,28.8
2023-01-07T07:18:00.643Z,33.4
2023-01-07T07:19:00.643Z,38.0
2023-01-07T07:20:01.575Z,42.6
2023-01-07T07:21:01.051Z,47.6
2023-01-07T07:22:01.291Z,52.6
2023-01-07T07:23:01.061Z,59.9
2023-01-07T07:24:00.649Z,67.3
2023-01-07T07:25:01.289Z,74.6
2023-01-07T07:26:00.923Z,83.1
2023-01-07T07:27:00.787Z,91.5
2023-01-07T07:28:00.659Z,101.1
2023-01-07T07:29:00.637Z,110.7
2023-01-07T07:31:00.943Z,134.7
2023-01-07T07:32:00.644Z,149.1
2023-01-07T07:33:00.637Z,164.4
2023-01-07T07:34:00.643Z,179.7
2023-01-07T07:36:07.047Z,215.6
2023-01-07T07:37:00.645Z,236.3
2023-01-07T07:38:00.641Z,259.8
2023-01-07T07:39:00.772Z,283.3
2023-01-07T07:40:00.718Z,306.9
2023-01-07T07:41:02.353Z,331.2
2023-01-07T07:42:00.637Z,355.5
2023-01-07T07:43:09.992Z,381.1
2023-01-07T07:44:00.642Z,406.7
2023-01-07T07:46:00.874Z,454.0
2023-01-07T07:47:00.643Z,475.7
2023-01-07T07:48:00.669Z,502.5
2023-01-07T07:49:00.639Z,529.3
2023-01-07T07:50:00.710Z,556.1
2023-01-07T07:51:00.855Z,584.3
2023-01-07T07:52:00.643Z,612.5
2023-01-07T07:53:00.649Z,643.5
2023-01-07T07:54:00.652Z,674.6
2023-01-07T07:55:19.623Z,713.2
2023-01-07T07:56:02.060Z,749.3
2023-01-07T07:57:00.812Z,785.5
2023-01-07T07:58:00.647Z,820.8
2023-01-07T07:59:03.919Z,856.1
2023-01-07T08:00:01.417Z,891.5
2023-01-07T08:01:01.159Z,927.7
2023-01-07T08:02:00.703Z,964.0
2023-01-07T08:03:00.774Z,1006.1
2023-01-07T08:04:00.654Z,1048.3
2023-01-07T08:06:00.850Z,1130.3
2023-01-07T08:07:00.649Z,1170.3
2023-01-07T08:08:00.668Z,1216.5
2023-01-07T08:09:00.647Z,1262.7
2023-01-07T08:10:00.692Z,1301.3
2023-01-07T08:11:01.242Z,1356.8
2023-01-07T08:12:00.709Z,1412.3
2023-01-07T08:13:00.645Z,1468.7
2023-01-07T08:14:00.664Z,1525.1
2023-01-07T08:16:00.900Z,1648.5
2023-01-07T08:17:00.643Z,1715.5
2023-01-07T08:18:00.647Z,1770.5
2023-01-07T08:19:00.643Z,1825.5
2023-01-07T08:20:00.689Z,1880.5
2023-01-07T08:21:01.166Z,1971.8
2023-01-07T08:22:00.646Z,2063.1
2023-01-07T08:23:00.825Z,2143.5
2023-01-07T08:24:00.925Z,2223.8
2023-01-07T08:25:01.596Z,2304.1
2023-01-07T08:26:00.859Z,2389.0
2023-01-07T08:27:00.762Z,2473.9
2023-01-07T08:28:00.647Z,2552.7
2023-01-07T08:29:00.654Z,2631.6
2023-01-07T08:31:00.871Z,2817.8
2023-01-07T08:32:00.663Z,2925.1
2023-01-07T08:33:00.648Z,3009.3
2023-01-07T08:34:00.649Z,3093.5
2023-01-07T08:35:01.413Z,3177.7
2023-01-07T08:36:01.108Z,3209.5
2023-01-07T08:37:00.672Z,3241.2
2023-01-07T08:38:00.666Z,3285.9
2023-01-07T08:39:00.717Z,3330.7
2023-01-07T08:40:02.262Z,3375.4
2023-01-07T08:41:01.598Z,3426.3
2023-01-07T08:42:00.665Z,3477.3
2023-01-07T08:43:00.796Z,3644.9
2023-01-07T08:44:00.662Z,3812.6
2023-01-07T08:45:01.614Z,3980.3
2023-01-07T08:46:01.892Z,4038.3
2023-01-07T08:47:00.806Z,4096.4
2023-01-07T08:48:00.707Z,4176.6
2023-01-07T08:49:00.658Z,4256.8
2023-01-07T08:51:00.867Z,4503.6
2023-01-07T08:52:01.474Z,4670.2
2023-01-07T08:53:00.684Z,4879.2
2023-01-07T08:54:00.682Z,5088.2
2023-01-07T08:55:00.705Z,5297.2
2023-01-07T08:56:00.861Z,5443.9
2023-01-07T08:57:00.661Z,5590.7
2023-01-07T08:58:00.772Z,5853.6
2023-01-07T08:59:00.797Z,6116.5
2023-01-07T09:00:01.443Z,6379.5
2023-01-07T09:01:00.986Z,6620.2
2023-01-07T09:02:00.790Z,6860.9
2023-01-07T09:03:00.679Z,7085.5
2023-01-07T09:04:00.656Z,7310.1
2023-01-07T09:06:01.202Z,7902.3
2023-01-07T09:07:00.664Z,8269.9
2023-01-07T09:08:00.745Z,8846.0
2023-01-07T09:09:00.683Z,9422.1
2023-01-07T09:10:00.804Z,9998.1
2023-01-07T09:11:02.121Z,10635.5
2023-01-07T09:12:00.667Z,11272.8
2023-01-07T09:13:00.665Z,11474.1
2023-01-07T09:14:00.666Z,11675.5
2023-01-07T09:16:01.097Z,12204.8
2023-01-07T09:17:00.762Z,12532.8
2023-01-07T09:18:00.769Z,13294.5
2023-01-07T09:19:00.664Z,14056.3
2023-01-07T09:20:01.485Z,14818.0
2023-01-07T09:21:02.292Z,15768.4
2023-01-07T09:22:00.678Z,16718.8
2023-01-07T09:23:00.666Z,17534.1
2023-01-07T09:24:00.663Z,18349.3
2023-01-07T09:25:00.969Z,19164.6
2023-01-07T09:26:01.767Z,19668.7
2023-01-07T09:27:00.663Z,20172.9
2023-01-07T09:28:00.734Z,20926.5
2023-01-07T09:29:00.864Z,21680.2
2023-01-07T09:31:00.999Z,23056.1
2023-01-07T09:32:00.703Z,23678.3
2023-01-07T09:33:02.035Z,23638.9
2023-01-07T09:34:00.665Z,23599.6
2023-01-07T09:35:00.707Z,23560.3
2023-01-07T09:36:01.393Z,23034.4
2023-01-07T09:37:00.665Z,22508.5
2023-01-07T09:38:00.675Z,21590.0
2023-01-07T09:39:00.680Z,20671.5
2023-01-07T09:40:01.539Z,19752.9
2023-01-07T09:41:01.686Z,19671.4
2023-01-07T09:42:01.704Z,19589.9
2023-01-07T09:43:00.689Z,19196.5
2023-01-07T09:44:01.880Z,18803.1
2023-01-07T09:46:01.218Z,18413.3
2023-01-07T09:47:01.104Z,18417.0
2023-01-07T09:48:00.673Z,18200.3
2023-01-07T09:49:00.676Z,17983.5
2023-01-07T09:50:00.936Z,17766.8
2023-01-07T09:51:02.800Z,17672.5
2023-01-07T09:52:00.675Z,17578.3
2023-01-07T09:53:00.710Z,17762.7
2023-01-07T09:54:00.668Z,17947.2
2023-01-07T09:55:00.720Z,18131.7
2023-01-07T09:56:10.298Z,17684.3
2023-01-07T09:57:00.674Z,17236.9
2023-01-07T09:58:00.672Z,16923.1
2023-01-07T09:59:00.687Z,16609.4
2023-01-07T10:00:01.597Z,16295.7
2023-01-07T10:01:01.530Z,15737.0
2023-01-07T10:02:00.676Z,15178.3
2023-01-07T10:03:00.930Z,15265.3
2023-01-07T10:04:05.888Z,15352.3
2023-01-07T10:05:00.742Z,15439.3
2023-01-07T10:06:00.889Z,15446.7
2023-01-07T10:07:00.681Z,15454.0
2023-01-07T10:08:29.594Z,15515.7
2023-01-07T10:09:00.659Z,15577.5
2023-01-07T10:10:00.723Z,15639.2
2023-01-07T10:11:01.167Z,15593.7
2023-01-07T10:12:00.676Z,15548.1
2023-01-07T10:13:00.686Z,15654.6
2023-01-07T10:14:00.694Z,15761.1
2023-01-07T10:15:01.536Z,15867.5
2023-01-07T10:16:01.068Z,15923.2
2023-01-07T10:17:00.792Z,15978.9
2023-01-07T10:18:00.679Z,15805.3
2023-01-07T10:19:00.819Z,15631.7
2023-01-07T10:20:00.734Z,15458.1
2023-01-07T10:21:01.021Z,15388.8
2023-01-07T10:22:00.716Z,15319.5
2023-01-07T10:23:00.710Z,15236.4
2023-01-07T10:24:00.690Z,15153.3
2023-01-07T10:25:00.760Z,15070.1
2023-01-07T10:26:02.141Z,15237.4
2023-01-07T10:27:00.688Z,15404.7
2023-01-07T10:28:00.687Z,15688.1
2023-01-07T10:29:00.685Z,15971.5
2023-01-07T10:31:00.889Z,16735.7
2023-01-07T10:32:00.774Z,17216.5
2023-01-07T10:33:00.955Z,17851.9
2023-01-07T10:34:00.705Z,18487.3
2023-01-07T10:35:00.850Z,19122.7
2023-01-07T10:36:01.174Z,19729.9
2023-01-07T10:37:00.687Z,20337.2
2023-01-07T10:38:00.701Z,20899.8
2023-01-07T10:39:00.698Z,21462.4
2023-01-07T10:40:01.346Z,22025.0
2023-01-07T10:41:00.942Z,22429.4
2023-01-07T10:42:00.703Z,22833.8
2023-01-07T10:43:00.690Z,23043.7
2023-01-07T10:44:00.682Z,23253.5
2023-01-07T10:45:06.932Z,23463.4
2023-01-07T10:46:01.725Z,23199.9
2023-01-07T10:47:00.714Z,22936.3
2023-01-07T10:48:00.683Z,22515.5
2023-01-07T10:49:00.943Z,22094.6
2023-01-07T10:50:00.697Z,21673.7
2023-01-07T10:51:01.055Z,21315.8
2023-01-07T10:52:00.726Z,20957.9
2023-01-07T10:53:00.690Z,20462.9
2023-01-07T10:54:00.698Z,19968.0
2023-01-07T10:55:00.720Z,19473.1
2023-01-07T10:56:00.943Z,19151.7
2023-01-07T10:57:00.699Z,18830.4
2023-01-07T10:58:00.688Z,18746.4
2023-01-07T10:59:00.700Z,18662.4
2023-01-07T11:00:01.332Z,18578.4
2023-01-07T11:01:06.614Z,18748.3
2023-01-07T11:02:00.973Z,18918.1
2023-01-07T11:03:00.788Z,18913.1
2023-01-07T11:04:01.941Z,18908.0
2023-01-07T11:05:00.721Z,18902.9
2023-01-07T11:06:00.944Z,18972.1
2023-01-07T11:07:00.811Z,19041.2
2023-01-07T11:08:00.694Z,19359.3
2023-01-07T11:09:00.698Z,19677.5
2023-01-07T11:10:00.707Z,19995.6
2023-01-07T11:11:01.895Z,20044.7
2023-01-07T11:12:00.698Z,20093.7
2023-01-07T11:13:00.731Z,20219.7
2023-01-07T11:14:00.882Z,20345.7
2023-01-07T11:16:02.566Z,20570.6
2023-01-07T11:17:00.715Z,20669.5
2023-01-07T11:18:01.728Z,20991.5
2023-01-07T11:19:00.697Z,21313.6
2023-01-07T11:20:00.743Z,21635.7
2023-01-07T11:21:01.220Z,21780.1
2023-01-07T11:22:01.024Z,21924.5
2023-01-07T11:23:00.826Z,22057.7
2023-01-07T11:24:00.703Z,22191.0
2023-01-07T11:25:00.703Z,22324.3
2023-01-07T11:26:00.970Z,22422.0
2023-01-07T11:27:01.107Z,22519.7
2023-01-07T11:28:00.770Z,22417.0
2023-01-07T11:29:00.694Z,22314.3
2023-01-07T11:30:01.786Z,22211.5
2023-01-07T11:31:00.909Z,22062.1
2023-01-07T11:32:00.846Z,21912.7
2023-01-07T11:33:00.717Z,22195.3
2023-01-07T11:34:04.251Z,22477.9
2023-01-07T11:35:00.979Z,22760.5
2023-01-07T11:36:00.988Z,23391.7
2023-01-07T11:37:00.752Z,24022.9
2023-01-07T11:38:00.713Z,23939.3
2023-01-07T11:39:00.826Z,23855.7
2023-01-07T11:40:00.731Z,23772.1
2023-01-07T11:41:01.215Z,24432.4
2023-01-07T11:42:00.780Z,25092.7
2023-01-07T11:43:00.717Z,26077.1
2023-01-07T11:44:00.722Z,27061.6
2023-01-07T11:46:19.068Z,28872.8
2023-01-07T11:47:01.175Z,29699.5
2023-01-07T11:48:00.713Z,29913.3
2023-01-07T11:49:00.787Z,30127.1
2023-01-07T11:50:00.729Z,30340.9
2023-01-07T11:51:00.917Z,30199.2
2023-01-07T11:52:01.038Z,30057.5
2023-01-07T11:53:01.002Z,30690.1
2023-01-07T11:54:00.716Z,31322.8
2023-01-07T11:56:02.197Z,31612.9
2023-01-07T11:57:00.751Z,31270.3
2023-01-07T11:58:27.879Z,30672.2
2023-01-07T11:59:00.700Z,30074.1
2023-01-07T12:01:02.189Z,29844.6
2023-01-07T12:02:00.938Z,30213.1
2023-01-07T12:03:00.723Z,30202.7
2023-01-07T12:04:00.714Z,30192.3
2023-01-07T12:05:00.720Z,30181.9
2023-01-07T12:06:01.618Z,30140.5
2023-01-07T12:07:00.741Z,30099.0
2023-01-07T12:08:00.705Z,29678.4
2023-01-07T12:09:00.742Z,29257.8
2023-01-07T12:10:00.855Z,28837.2
2023-01-07T12:11:01.224Z,29072.7
2023-01-07T12:12:01.023Z,29308.3
2023-01-07T12:13:00.705Z,28763.3
2023-01-07T12:14:00.976Z,28218.3
2023-01-07T12:15:05.777Z,27673.3
2023-01-07T12:16:02.060Z,26376.5
2023-01-07T12:17:00.814Z,25079.7
2023-01-07T12:18:00.731Z,24483.6
2023-01-07T12:19:00.728Z,23887.5
2023-01-07T12:20:00.750Z,23291.5
2023-01-07T12:21:01.463Z,22970.8
2023-01-07T12:22:00.747Z,22650.1
2023-01-07T12:23:01.733Z,22635.4
2023-01-07T12:24:01.014Z,22620.7
2023-01-07T12:25:00.716Z,22605.9
2023-01-07T12:26:02.327Z,22486.7
2023-01-07T12:27:00.914Z,22367.5
2023-01-07T12:28:00.710Z,23112.5
2023-01-07T12:29:00.729Z,23857.4
2023-01-07T12:30:06.410Z,24602.3
2023-01-07T12:31:01.025Z,25304.3
2023-01-07T12:32:00.753Z,26006.3
2023-01-07T12:33:00.743Z,26369.9
2023-01-07T12:34:00.704Z,26733.5
2023-01-07T12:35:14.157Z,27097.1
2023-01-07T12:36:00.915Z,26988.4
2023-01-07T12:37:00.776Z,26879.7
2023-01-07T12:38:00.715Z,26744.1
2023-01-07T12:39:00.716Z,26608.6
2023-01-07T12:40:00.729Z,26473.1
2023-01-07T12:41:00.953Z,26232.8
2023-01-07T12:42:00.759Z,25992.5
2023-01-07T12:43:01.857Z,25421.0
2023-01-07T12:44:00.714Z,24849.5
2023-01-07T12:46:01.021Z,23662.3
2023-01-07T12:47:30.175Z,23046.6
2023-01-07T12:48:00.703Z,22877.9
2023-01-07T12:49:00.714Z,22709.3
2023-01-07T12:50:00.754Z,22540.6
2023-01-07T12:51:00.934Z,23070.0
2023-01-07T12:52:00.960Z,23599.4
2023-01-07T12:53:00.799Z,24277.7
2023-01-07T12:54:01.006Z,24956.1
2023-01-07T12:55:00.722Z,25634.4
2023-01-07T12:56:00.922Z,26328.0
2023-01-07T12:57:00.757Z,27021.6
2023-01-07T12:58:00.719Z,27895.3
2023-01-07T12:59:00.829Z,28769.1
2023-01-07T13:01:01.091Z,30632.9
2023-01-07T13:02:00.885Z,31622.9
2023-01-07T13:03:00.719Z,32519.5
2023-01-07T13:04:00.718Z,33416.1
2023-01-07T13:05:00.854Z,34312.7
2023-01-07T13:06:01.243Z,34925.3
2023-01-07T13:07:00.817Z,35537.8
2023-01-07T13:08:02.172Z,35914.9
2023-01-07T13:09:00.714Z,36292.1
2023-01-07T13:10:00.736Z,36669.2
2023-01-07T13:11:01.203Z,37151.9
2023-01-07T13:12:01.853Z,37634.7
2023-01-07T13:13:01.742Z,38499.2
2023-01-07T13:14:01.772Z,39363.7
2023-01-07T13:15:02.069Z,40228.3
2023-01-07T13:16:01.124Z,40876.1
2023-01-07T13:17:00.885Z,41523.9
2023-01-07T13:18:00.754Z,41846.5
2023-01-07T13:19:01.037Z,42169.1
2023-01-07T13:20:01.615Z,42491.7
2023-01-07T13:21:01.025Z,42816.3
2023-01-07T13:22:00.822Z,43140.9
2023-01-07T13:23:00.786Z,43408.7
2023-01-07T13:24:00.836Z,43676.5
2023-01-07T13:25:00.752Z,43944.3
2023-01-07T13:26:02.485Z,44570.0
2023-01-07T13:27:00.953Z,45195.7
2023-01-07T13:28:00.737Z,45220.6
2023-01-07T13:29:00.826Z,45245.5
2023-01-07T13:30:02.046Z,45270.3
2023-01-07T13:31:01.349Z,44809.0
2023-01-07T13:32:00.794Z,44347.7
2023-01-07T13:33:00.794Z,43841.2
2023-01-07T13:34:00.942Z,43334.7
2023-01-07T13:35:01.960Z,42828.3
2023-01-07T13:36:01.072Z,41678.8
2023-01-07T13:37:02.796Z,40529.3
2023-01-07T13:38:01.336Z,39049.0
2023-01-07T13:39:00.793Z,37568.7
2023-01-07T13:40:00.847Z,36088.3
2023-01-07T13:41:02.852Z,34047.2
2023-01-07T13:42:00.940Z,32006.1
2023-01-07T13:43:00.878Z,29794.3
2023-01-07T13:44:00.795Z,27582.6
2023-01-07T13:45:01.888Z,25370.9
2023-01-07T13:46:02.556Z,23948.6
2023-01-07T13:47:00.917Z,22526.3
2023-01-07T13:48:00.780Z,20915.2
2023-01-07T13:49:01.316Z,19304.1
2023-01-07T13:51:01.040Z,16592.9
2023-01-07T13:52:01.284Z,15492.9
2023-01-07T13:53:01.836Z,15155.4
2023-01-07T13:54:00.873Z,14817.9
2023-01-07T13:55:00.772Z,14480.3
2023-01-07T13:56:01.381Z,14359.1
2023-01-07T13:57:01.109Z,14237.8
2023-01-07T13:58:02.203Z,14452.2
2023-01-07T13:59:00.822Z,14801.7
2023-01-07T14:00:01.830Z,15151.3
2023-01-07T14:01:08.414Z,15408.6
2023-01-07T14:02:00.914Z,15665.9
2023-01-07T14:03:01.089Z,16328.5
2023-01-07T14:04:00.971Z,16778.1
2023-01-07T14:05:00.875Z,17227.6
2023-01-07T14:06:02.498Z,17594.5
2023-01-07T14:07:00.827Z,17961.3
2023-01-07T14:08:00.838Z,17964.9
2023-01-07T14:09:00.878Z,17793.3
2023-01-07T14:11:01.105Z,17536.6
2023-01-07T14:12:00.765Z,17451.5
2023-01-07T14:13:01.096Z,17366.3
2023-01-07T14:14:00.861Z,17042.1
2023-01-07T14:16:01.183Z,16424.4
2023-01-07T14:17:00.914Z,16130.9
2023-01-07T14:18:01.034Z,15837.3
2023-01-07T14:19:01.070Z,15768.5
2023-01-07T14:20:02.273Z,15699.7
2023-01-07T14:21:02.621Z,15698.1
2023-01-07T14:22:00.870Z,15696.5
2023-01-07T14:23:00.789Z,15694.9
2023-01-07T14:24:00.877Z,15818.0
2023-01-07T14:25:00.968Z,15941.1
2023-01-07T14:26:04.263Z,15790.1
2023-01-07T14:27:00.837Z,15639.2
2023-01-07T14:28:00.805Z,15488.3
2023-01-07T14:29:00.841Z,15367.5
2023-01-07T14:30:16.963Z,15246.7
2023-01-07T14:31:01.533Z,15039.7
2023-01-07T14:32:00.756Z,14832.8
2023-01-07T14:33:00.793Z,14625.9
2023-01-07T14:34:00.809Z,14356.9
2023-01-07T14:36:00.969Z,13748.0
2023-01-07T14:37:00.740Z,13408.0
2023-01-07T14:38:00.830Z,13068.0
2023-01-07T14:39:00.747Z,12715.2
2023-01-07T14:40:00.774Z,12362.4
2023-01-07T14:41:00.993Z,12058.5
2023-01-07T14:42:00.766Z,11754.7
2023-01-07T14:43:00.797Z,11450.8
2023-01-07T14:44:00.748Z,11187.5
2023-01-07T14:45:02.477Z,10924.3
2023-01-07T14:46:02.685Z,10658.3
2023-01-07T14:47:00.810Z,10392.4
2023-01-07T14:48:00.887Z,10126.5
2023-01-07T14:49:01.859Z,9830.8
2023-01-07T14:50:00.766Z,9535.1
2023-01-07T14:51:02.679Z,9206.2
2023-01-07T14:52:00.850Z,8877.3
2023-01-07T14:53:01.026Z,8548.3
2023-01-07T14:54:00.752Z,8214.1
2023-01-07T14:55:01.890Z,7879.8
2023-01-07T14:56:01.852Z,7493.2
2023-01-07T14:57:00.755Z,7106.6
2023-01-07T14:58:00.805Z,6720.0
2023-01-07T14:59:00.833Z,6323.6
2023-01-07T15:00:01.640Z,5927.2
2023-01-07T15:01:01.295Z,5560.7
2023-01-07T15:02:00.821Z,5194.3
2023-01-07T15:03:01.088Z,4827.8
2023-01-07T15:04:00.749Z,4493.0
2023-01-07T15:05:00.834Z,4158.2
2023-01-07T15:06:01.787Z,3859.9
2023-01-07T15:07:00.866Z,3561.5
2023-01-07T15:08:06.782Z,3263.2
2023-01-07T15:09:00.759Z,3018.7
2023-01-07T15:10:01.388Z,2774.1
2023-01-07T15:11:01.182Z,2587.3
2023-01-07T15:12:00.751Z,2400.4
2023-01-07T15:13:00.789Z,2213.5
2023-01-07T15:14:00.751Z,2058.3
2023-01-07T15:15:01.647Z,1903.1
2023-01-07T15:16:01.032Z,1768.3
2023-01-07T15:17:00.746Z,1633.5
2023-01-07T15:18:00.801Z,1498.7
2023-01-07T15:19:00.754Z,1403.9
2023-01-07T15:20:00.769Z,1309.0
2023-01-07T15:21:00.955Z,1241.2
2023-01-07T15:22:00.749Z,1173.4
2023-01-07T15:23:00.909Z,1105.6
2023-01-07T15:24:05.785Z,1042.1
2023-01-07T15:25:00.771Z,978.7
2023-01-07T15:26:02.498Z,916.3
2023-01-07T15:27:00.754Z,853.9
2023-01-07T15:28:00.781Z,791.5
2023-01-07T15:29:00.755Z,736.1
2023-01-07T15:30:01.800Z,680.7
2023-01-07T15:31:01.055Z,637.8
2023-01-07T15:32:00.758Z,594.9
2023-01-07T15:33:00.804Z,552.1
2023-01-07T15:34:00.762Z,509.5
2023-01-07T15:35:00.792Z,466.9
2023-01-07T15:36:02.185Z,426.9
2023-01-07T15:37:00.756Z,386.9
2023-01-07T15:38:06.165Z,346.9
2023-01-07T15:39:00.759Z,315.1
2023-01-07T15:40:00.835Z,283.4
2023-01-07T15:41:02.274Z,257.3
2023-01-07T15:42:00.777Z,231.3
2023-01-07T15:43:00.801Z,205.2
2023-01-07T15:44:00.779Z,182.1
2023-01-07T15:45:01.711Z,158.9
2023-01-07T15:46:00.976Z,138.6
2023-01-07T15:47:00.878Z,118.3
2023-01-07T15:48:00.796Z,97.9
2023-01-07T15:49:00.801Z,85.2
2023-01-07T15:50:00.785Z,72.5
2023-01-07T15:51:01.114Z,64.6
2023-01-07T15:52:00.851Z,56.7
2023-01-07T15:53:01.360Z,48.9
2023-01-07T15:54:00.946Z,42.9
2023-01-07T15:55:01.927Z,36.9
2023-01-07T15:56:01.202Z,32.8
2023-01-07T15:57:00.782Z,28.7
2023-01-07T15:58:00.797Z,24.7
2023-01-07T15:59:00.802Z,21.9
2023-01-07T16:00:01.619Z,19.1
2023-01-07T16:01:01.307Z,17.1
2023-01-07T16:02:00.814Z,15.1
2023-01-07T16:03:00.775Z,13.1
2023-01-07T16:04:00.807Z,11.6
2023-01-07T16:05:00.871Z,10.1
2023-01-07T16:06:02.073Z,9.0
2023-01-07T16:07:00.789Z,7.9
2023-01-07T16:08:00.762Z,6.7
2023-01-07T16:09:00.822Z,5.9
2023-01-07T16:10:00.942Z,5.1
2023-01-07T16:11:02.121Z,4.6
2023-01-07T16:12:00.768Z,4.1
2023-01-07T16:13:00.776Z,3.5
2023-01-07T16:14:00.806Z,3.1
2023-01-07T16:16:02.620Z,2.5
2023-01-07T16:17:00.768Z,2.2
2023-01-07T16:18:00.835Z,1.9
2023-01-07T16:19:00.796Z,1.7
2023-01-07T16:20:00.831Z,1.5
2023-01-07T16:21:01.052Z,1.3
2023-01-07T16:22:00.766Z,1.1
2023-01-07T16:23:00.782Z,0.9
2023-01-07T16:24:01.212Z,0.8
2023-01-07T16:25:01.668Z,0.7
2023-01-07T16:26:01.128Z,0.6
2023-01-07T16:27:00.791Z,0.5
2023-01-07T16:29:01.854Z,0.4
2023-01-07T16:32:00.991Z,0.2
2023-01-07T16:33:00.806Z,0.1
2023-01-07T19:49:00.964Z,0.1
2023-01-07T19:51:02.391Z,0.2
2023-01-07T19:52:00.844Z,0.3
2023-01-07T19:54:00.898Z,0.4
2023-01-07T19:55:00.854Z,0.5
2023-01-07T19:57:01.103Z,0.6
2023-01-07T19:58:00.835Z,0.7
2023-01-07T20:01:00.923Z,0.9
2023-01-07T20:03:01.225Z,1.0
2023-01-07T20:14:01.112Z,0.9
2023-01-07T20:26:01.911Z,0.8
2023-01-07T20:27:00.835Z,0.7
2023-01-07T20:31:01.497Z,0.6
2023-01-07T20:32:00.960Z,0.5
2023-01-07T20:34:00.919Z,0.4
2023-01-07T20:35:00.873Z,0.3
2023-01-07T20:37:01.054Z,0.2
2023-01-07T20:38:00.857Z,0.1
2023-01-07T20:43:01.137Z,0.2
2023-01-07T20:44:00.858Z,0.3
2023-01-07T20:46:00.972Z,0.4
2023-01-07T20:47:00.845Z,0.5
2023-01-07T20:49:01.058Z,0.6
2023-01-07T20:50:00.859Z,0.7
2023-01-07T20:56:02.605Z,0.6
2023-01-07T20:57:00.854Z,0.5
2023-01-07T20:59:00.894Z,0.4
2023-01-07T21:02:01.402Z,0.2
2023-01-07T21:03:01.203Z,0.1
2023-01-07T22:24:02.168Z,0.1
2023-01-07T22:26:00.878Z,0.2
2023-01-07T22:27:00.966Z,0.3
2023-01-07T22:29:02.869Z,0.4
2023-01-07T22:32:00.948Z,0.6
2023-01-07T22:33:00.885Z,0.7
2023-01-07T22:35:02.006Z,0.8
2023-01-07T22:36:00.886Z,0.9
2023-01-07T22:38:00.878Z,1.0
2023-01-07T23:19:00.895Z,0.9
2023-01-07T23:21:02.516Z,0.8
2023-01-07T23:22:00.901Z,0.7
2023-01-07T23:26:02.323Z,0.6
2023-01-07T23:27:00.896Z,0.5
2023-01-07T23:29:00.899Z,0.4
2023-01-07T23:32:01.292Z,0.2
2023-01-07T23:33:00.903Z,0.1
2023-01-07T23:41:00.903Z,0.2
2023-01-07T23:42:01.025Z,0.3
2023-01-07T23:44:01.033Z,0.4
2023-01-07T23:45:01.728Z,0.5
2023-01-07T23:47:00.903Z,0.6
2023-01-07T23:48:01.054Z,0.7
2023-01-07T23:50:01.149Z,0.8
2023-01-07T23:51:00.912Z,0.9
2023-01-07T23:53:01.034Z,1.0
